| time (UTC) | temp F | wind direction | speed knots | gust knots | rain 1hr in | rain 24hr in | rain mn in | humidity % | barometer mb |
| 20260504195015 | 67 | 175 | 3.5 | 15.6 | 0.00 | 0.00 | 0.00 | 52 | 1010.1 |
| 20260504194513 | 67 | 191 | 6.1 | 13.9 | 0.00 | 0.00 | 0.00 | 52 | 1010.2 |
| 20260504194011 | 67 | 183 | 4.3 | 13.0 | 0.00 | 0.00 | 0.00 | 52 | 1010.3 |
| 20260504193510 | 67 | 181 | 6.1 | 13.0 | 0.00 | 0.00 | 0.00 | 49 | 1010.3 |
| 20260504193007 | 68 | 150 | 6.1 | 15.6 | 0.00 | 0.00 | 0.00 | 49 | 1010.4 |
| 20260504192505 | 68 | 109 | 5.2 | 13.0 | 0.00 | 0.00 | 0.00 | 50 | 1010.4 |
| 20260504192004 | 68 | 154 | 7.0 | 13.0 | 0.00 | 0.00 | 0.00 | 48 | 1010.5 |
| 20260504191505 | 69 | 200 | 5.2 | 12.2 | 0.00 | 0.00 | 0.00 | 50 | 1010.5 |
| 20260504191059 | 69 | 200 | 3.5 | 18.2 | 0.00 | 0.00 | 0.00 | 48 | 1010.5 |
| 20260504190518 | 69 | 217 | 4.3 | 18.2 | 0.00 | 0.00 | 0.00 | 47 | 1010.6 |
| 20260504190023 | 69 | 199 | 3.5 | 12.2 | 0.00 | 0.00 | 0.00 | 48 | 1010.5 |
| 20260504185513 | 69 | 220 | 5.2 | 13.0 | 0.00 | 0.00 | 0.00 | 48 | 1010.5 |
| 20260504185012 | 69 | 172 | 6.1 | 13.9 | 0.00 | 0.00 | 0.00 | 48 | 1010.6 |
| 20260504184513 | 69 | 163 | 7.0 | 14.8 | 0.00 | 0.00 | 0.00 | 47 | 1010.5 |
| 20260504184014 | 69 | 123 | 4.3 | 14.8 | 0.00 | 0.00 | 0.00 | 47 | 1010.5 |
| 20260504183509 | 68 | 165 | 7.0 | 15.6 | 0.00 | 0.00 | 0.00 | 46 | 1010.6 |
| 20260504183009 | 69 | 197 | 7.0 | 15.6 | 0.00 | 0.00 | 0.00 | 43 | 1010.6 |
| 20260504182508 | 69 | 185 | 4.3 | 13.9 | 0.00 | 0.00 | 0.00 | 44 | 1010.5 |
| 20260504182003 | 69 | 161 | 6.1 | 17.4 | 0.00 | 0.00 | 0.00 | 44 | 1010.6 |
| 20260504181503 | 69 | 150 | 7.8 | 17.4 | 0.00 | 0.00 | 0.00 | 45 | 1010.6 |
| 20260504181101 | 69 | 184 | 4.3 | 15.6 | 0.00 | 0.00 | 0.00 | 45 | 1010.5 |
| 20260504180519 | 69 | 192 | 5.2 | 18.2 | 0.00 | 0.00 | 0.00 | 44 | 1010.7 |
| 20260504180017 | 69 | 142 | 6.1 | 18.2 | 0.00 | 0.00 | 0.00 | 43 | 1010.8 |
| 20260504175517 | 69 | 202 | 3.5 | 13.0 | 0.00 | 0.00 | 0.00 | 44 | 1010.7 |
| 20260504175017 | 69 | 254 | 7.0 | 13.0 | 0.00 | 0.00 | 0.00 | 41 | 1010.7 |
| 20260504174512 | 68 | 177 | 4.3 | 14.8 | 0.00 | 0.00 | 0.00 | 44 | 1010.9 |
| 20260504174009 | 68 | 248 | 6.1 | 14.8 | 0.00 | 0.00 | 0.00 | 41 | 1010.9 |
| 20260504173511 | 68 | 215 | 4.3 | 13.0 | 0.00 | 0.00 | 0.00 | 40 | 1011.0 |
| 20260504173009 | 68 | 221 | 5.2 | 12.2 | 0.00 | 0.00 | 0.00 | 43 | 1011.1 |
| 20260504172508 | 69 | 151 | 5.2 | 15.6 | 0.00 | 0.00 | 0.00 | 46 | 1011.2 |
| 20260504172006 | 68 | 340 | 5.2 | 15.6 | 0.00 | 0.00 | 0.00 | 45 | 1011.3 |
| 20260504171504 | 68 | 74 | 5.2 | 13.9 | 0.00 | 0.00 | 0.00 | 45 | 1011.4 |
| 20260504171003 | 68 | 192 | 3.5 | 13.9 | 0.00 | 0.00 | 0.00 | 43 | 1011.4 |
| 20260504170602 | 68 | 242 | 4.3 | 9.6 | 0.00 | 0.00 | 0.00 | 45 | 1011.5 |
| 20260504160117 | 66 | 236 | 4.3 | 15.6 | 0.00 | 0.00 | 0.00 | 41 | 1012.3 |
| 20260504151005 | 64 | 303 | 7.0 | 18.2 | 0.00 | 0.00 | 0.00 | 42 | 1013.0 |
| 20260504150502 | 64 | 261 | 4.3 | 16.5 | 0.00 | 0.00 | 0.00 | 43 | 1013.1 |
| 20260504141101 | 60 | 210 | 4.3 | 10.4 | 0.00 | 0.00 | 0.00 | 51 | 1013.1 |
| 20260504140514 | 60 | 213 | 3.5 | 13.0 | 0.00 | 0.00 | 0.00 | 51 | 1013.2 |
| 20260504130510 | 56 | 202 | 1.7 | 12.2 | 0.00 | 0.00 | 0.00 | 57 | 1013.6 |
| 20260504110512 | 48 | 178 | 2.6 | 6.1 | 0.00 | 0.00 | 0.00 | 65 | 1014.1 |
| 20260504100516 | 47 | 224 | 1.7 | 4.3 | 0.00 | 0.00 | 0.00 | 63 | 1013.9 |
| 20260504081513 | 46 | 175 | 1.7 | 6.1 | 0.00 | 0.00 | 0.00 | 64 | 1013.3 |
| 20260504081015 | 46 | 213 | 0.9 | 5.2 | 0.00 | 0.00 | 0.00 | 65 | 1013.2 |
| 20260504080515 | 46 | 241 | 0.9 | 5.2 | 0.00 | 0.00 | 0.00 | 65 | 1013.2 |
| 20260504050516 | 41 | 261 | 0.0 | 1.7 | 0.00 | 0.00 | 0.00 | 75 | 1012.5 |
| 20260504050011 | 41 | 261 | 0.0 | 1.7 | 0.00 | 0.00 | 0.00 | 75 | 1012.5 |
| 20260504045509 | 41 | 261 | 0.0 | 0.9 | 0.00 | 0.00 | 0.00 | 75 | 1012.5 |
| 20260504045007 | 41 | 261 | 0.0 | 0.9 | 0.00 | 0.00 | 0.00 | 74 | 1012.6 |
| 20260504044511 | 41 | 261 | 0.0 | 0.9 | 0.00 | 0.00 | 0.00 | 74 | 1012.5 |
| 20260504044003 | 41 | 261 | 0.0 | 0.0 | 0.00 | 0.00 | 0.00 | 73 | 1012.4 |
| 20260504043505 | 41 | 261 | 0.0 | 0.0 | 0.00 | 0.00 | 0.00 | 73 | 1012.4 |
| 20260504043005 | 41 | 261 | 0.0 | 0.0 | 0.00 | 0.00 | 0.00 | 73 | 1012.3 |
| 20260504042500 | 41 | 261 | 0.0 | 0.0 | 0.00 | 0.00 | 0.00 | 73 | 1012.4 |
| 20260504042059 | 42 | 261 | 0.0 | 0.0 | 0.00 | 0.00 | 0.00 | 73 | 1012.4 |
| 20260504041521 | 42 | 261 | 0.0 | 0.0 | 0.00 | 0.00 | 0.00 | 72 | 1012.3 |
| 20260504041015 | 42 | 261 | 0.0 | 0.0 | 0.00 | 0.00 | 0.00 | 72 | 1012.3 |
| 20260504040514 | 42 | 261 | 0.0 | 0.0 | 0.00 | 0.00 | 0.00 | 71 | 1012.3 |
| 20260504040013 | 42 | 261 | 0.0 | 0.0 | 0.00 | 0.00 | 0.00 | 71 | 1012.2 |
| 20260504035507 | 42 | 261 | 0.0 | 0.0 | 0.00 | 0.00 | 0.00 | 71 | 1012.3 |
| 20260504035004 | 42 | 261 | 0.0 | 0.0 | 0.00 | 0.00 | 0.00 | 71 | 1012.2 |
| 20260504034503 | 42 | 261 | 0.0 | 0.0 | 0.00 | 0.00 | 0.00 | 70 | 1012.3 |
| 20260504034001 | 42 | 261 | 0.0 | 0.0 | 0.00 | 0.00 | 0.00 | 70 | 1012.2 |
| 20260504033602 | 43 | 261 | 0.0 | 0.0 | 0.00 | 0.00 | 0.00 | 70 | 1012.1 |
| 20260504033057 | 43 | 261 | 0.0 | 0.0 | 0.00 | 0.00 | 0.00 | 69 | 1012.2 |
| 20260504032513 | 43 | 261 | 0.0 | 0.0 | 0.00 | 0.00 | 0.00 | 69 | 1012.1 |
| 20260504032015 | 43 | 261 | 0.0 | 0.0 | 0.00 | 0.00 | 0.00 | 69 | 1012.1 |
| 20260504031513 | 43 | 261 | 0.0 | 0.0 | 0.00 | 0.00 | 0.00 | 69 | 1012.1 |
| 20260504031015 | 43 | 261 | 0.0 | 0.0 | 0.00 | 0.00 | 0.00 | 69 | 1012.0 |
| 20260504030514 | 43 | 261 | 0.0 | 0.0 | 0.00 | 0.00 | 0.00 | 68 | 1012.0 |
| 20260504030012 | 43 | 261 | 0.0 | 0.0 | 0.00 | 0.00 | 0.00 | 68 | 1012.0 |
| 20260504025509 | 44 | 261 | 0.0 | 0.0 | 0.00 | 0.00 | 0.00 | 67 | 1012.0 |
| 20260504025003 | 44 | 261 | 0.0 | 0.0 | 0.00 | 0.00 | 0.00 | 67 | 1012.0 |
| 20260504024604 | 44 | 261 | 0.0 | 0.0 | 0.00 | 0.00 | 0.00 | 67 | 1011.8 |
| 20260504024058 | 44 | 261 | 0.0 | 0.0 | 0.00 | 0.00 | 0.00 | 66 | 1012.0 |
| 20260504023517 | 44 | 261 | 0.0 | 0.0 | 0.00 | 0.00 | 0.00 | 66 | 1012.1 |
| 20260504023018 | 45 | 261 | 0.0 | 0.0 | 0.00 | 0.00 | 0.00 | 65 | 1012.0 |
| 20260504022514 | 45 | 261 | 0.0 | 0.0 | 0.00 | 0.00 | 0.00 | 65 | 1012.1 |
| 20260504022011 | 45 | 261 | 0.0 | 0.0 | 0.00 | 0.00 | 0.00 | 64 | 1012.1 |
| 20260504021506 | 45 | 261 | 0.0 | 0.0 | 0.00 | 0.00 | 0.00 | 64 | 1012.1 |
| 20260504021007 | 46 | 261 | 0.0 | 0.0 | 0.00 | 0.00 | 0.00 | 64 | 1012.1 |
| 20260504020506 | 46 | 261 | 0.0 | 0.0 | 0.00 | 0.00 | 0.00 | 63 | 1012.0 |
| 20260504020004 | 46 | 261 | 0.0 | 0.0 | 0.00 | 0.00 | 0.00 | 62 | 1012.0 |
| 20260504015502 | 46 | 261 | 0.0 | 0.0 | 0.00 | 0.00 | 0.00 | 61 | 1012.0 |
| 20260504015100 | 47 | 261 | 0.0 | 0.0 | 0.00 | 0.00 | 0.00 | 61 | 1012.0 |
| 20260504014518 | 47 | 261 | 0.0 | 0.0 | 0.00 | 0.00 | 0.00 | 60 | 1012.1 |
| 20260504014015 | 47 | 261 | 0.0 | 0.0 | 0.00 | 0.00 | 0.00 | 60 | 1012.0 |
| 20260504013515 | 48 | 261 | 0.0 | 0.0 | 0.00 | 0.00 | 0.00 | 59 | 1012.0 |
| 20260504013017 | 48 | 261 | 0.0 | 0.0 | 0.00 | 0.00 | 0.00 | 59 | 1011.8 |
| 20260504012511 | 48 | 261 | 0.0 | 0.0 | 0.00 | 0.00 | 0.00 | 58 | 1011.8 |
| 20260504012009 | 49 | 261 | 0.0 | 0.0 | 0.00 | 0.00 | 0.00 | 57 | 1011.7 |
| 20260504011517 | 49 | 261 | 0.0 | 0.0 | 0.00 | 0.00 | 0.00 | 56 | 1011.7 |
| 20260504011006 | 49 | 261 | 0.0 | 0.0 | 0.00 | 0.00 | 0.00 | 56 | 1011.6 |
| 20260504010500 | 50 | 261 | 0.0 | 0.0 | 0.00 | 0.00 | 0.00 | 54 | 1011.6 |
| 20260504010004 | 50 | 261 | 0.0 | 0.0 | 0.00 | 0.00 | 0.00 | 53 | 1011.6 |
| 20260504005500 | 51 | 261 | 0.0 | 0.0 | 0.00 | 0.00 | 0.00 | 52 | 1011.4 |
| 20260504005059 | 51 | 261 | 0.0 | 0.0 | 0.00 | 0.00 | 0.00 | 51 | 1011.5 |
| 20260504004520 | 52 | 261 | 0.0 | 0.0 | 0.00 | 0.00 | 0.00 | 50 | 1011.4 |
| 20260504004015 | 52 | 261 | 0.0 | 0.0 | 0.00 | 0.00 | 0.00 | 49 | 1011.3 |
| 20260504003513 | 53 | 261 | 0.0 | 0.0 | 0.00 | 0.00 | 0.00 | 48 | 1011.3 |
| 20260504003010 | 53 | 261 | 0.0 | 0.0 | 0.00 | 0.00 | 0.00 | 46 | 1011.1 |
| 20260504002508 | 54 | 261 | 0.0 | 0.0 | 0.00 | 0.00 | 0.00 | 46 | 1011.1 |
| 20260504002011 | 54 | 261 | 0.0 | 0.9 | 0.00 | 0.00 | 0.00 | 44 | 1011.1 |
| 20260504001506 | 54 | 261 | 0.0 | 0.9 | 0.00 | 0.00 | 0.00 | 43 | 1010.9 |
| 20260504001004 | 55 | 261 | 0.0 | 0.9 | 0.00 | 0.00 | 0.00 | 43 | 1010.9 |
| 20260504000501 | 55 | 261 | 0.0 | 1.7 | 0.00 | 0.00 | 0.00 | 41 | 1010.8 |
| 20260504000001 | 56 | 261 | 0.0 | 1.7 | 0.00 | 0.00 | 0.00 | 39 | 1010.8 |
| 20260503235557 | 56 | 261 | 0.0 | 2.6 | 0.00 | 0.00 | 0.00 | 39 | 1010.7 |
| 20260503235102 | 56 | 261 | 0.0 | 2.6 | 0.00 | 0.00 | 0.00 | 38 | 1010.6 |
| 20260503234518 | 56 | 261 | 0.0 | 1.7 | 0.00 | 0.00 | 0.00 | 38 | 1010.6 |
| 20260503234016 | 57 | 261 | 0.0 | 5.2 | 0.00 | 0.00 | 0.00 | 37 | 1010.6 |
| 20260503233514 | 57 | 261 | 0.9 | 5.2 | 0.00 | 0.00 | 0.00 | 36 | 1010.4 |
| 20260503233011 | 57 | 281 | 1.7 | 5.2 | 0.00 | 0.00 | 0.00 | 36 | 1010.4 |
| 20260503232510 | 57 | 249 | 2.6 | 6.1 | 0.00 | 0.00 | 0.00 | 35 | 1010.4 |
| 20260503232008 | 57 | 277 | 1.7 | 6.1 | 0.00 | 0.00 | 0.00 | 34 | 1010.3 |
| 20260503231509 | 58 | 221 | 1.7 | 5.2 | 0.00 | 0.00 | 0.00 | 35 | 1010.3 |
| 20260503231004 | 58 | 232 | 0.9 | 9.6 | 0.00 | 0.00 | 0.00 | 34 | 1010.2 |
| 20260503230502 | 58 | 257 | 4.3 | 9.6 | 0.00 | 0.00 | 0.00 | 32 | 1010.2 |
| 20260503230006 | 58 | 230 | 1.7 | 10.4 | 0.00 | 0.00 | 0.00 | 33 | 1010.2 |
| 20260503225520 | 58 | 287 | 5.2 | 10.4 | 0.00 | 0.00 | 0.00 | 32 | 1010.1 |
| 20260503225018 | 58 | 263 | 4.3 | 13.9 | 0.00 | 0.00 | 0.00 | 32 | 1010.1 |
| 20260503224516 | 58 | 299 | 3.5 | 13.9 | 0.00 | 0.00 | 0.00 | 33 | 1010.1 |
| 20260503224012 | 58 | 338 | 2.6 | 14.8 | 0.00 | 0.00 | 0.00 | 33 | 1010.1 |
| 20260503223517 | 58 | 319 | 5.2 | 12.2 | 0.00 | 0.00 | 0.00 | 33 | 1010.1 |
| 20260503223015 | 58 | 258 | 5.2 | 13.0 | 0.00 | 0.00 | 0.00 | 32 | 1010.1 |
| 20260503222511 | 58 | 286 | 6.1 | 13.0 | 0.00 | 0.00 | 0.00 | 32 | 1010.0 |
| 20260503222008 | 58 | 300 | 4.3 | 13.0 | 0.00 | 0.00 | 0.00 | 33 | 1009.9 |
| 20260503221506 | 58 | 350 | 5.2 | 14.8 | 0.00 | 0.00 | 0.00 | 33 | 1010.0 |
| 20260503221005 | 58 | 300 | 6.1 | 15.6 | 0.00 | 0.00 | 0.00 | 32 | 1010.0 |
| 20260503220503 | 58 | 270 | 7.0 | 19.1 | 0.00 | 0.00 | 0.00 | 32 | 1009.9 |
| 20260503220002 | 58 | 300 | 7.0 | 19.1 | 0.00 | 0.00 | 0.00 | 33 | 1009.9 |
| 20260503215558 | 58 | 329 | 8.7 | 19.1 | 0.00 | 0.00 | 0.00 | 31 | 1010.1 |
| 20260503215016 | 58 | 266 | 6.1 | 16.5 | 0.00 | 0.00 | 0.00 | 33 | 1010.0 |
| 20260503214521 | 58 | 306 | 7.8 | 17.4 | 0.00 | 0.00 | 0.00 | 33 | 1010.1 |
| 20260503214012 | 58 | 325 | 8.7 | 17.4 | 0.00 | 0.00 | 0.00 | 33 | 1010.1 |
| 20260503213510 | 58 | 326 | 6.1 | 13.9 | 0.00 | 0.00 | 0.00 | 33 | 1009.9 |
| 20260503213010 | 58 | 251 | 7.0 | 13.9 | 0.00 | 0.00 | 0.00 | 34 | 1009.9 |
| 20260503212512 | 58 | 355 | 7.8 | 14.8 | 0.00 | 0.00 | 0.00 | 34 | 1009.9 |
| 20260503212011 | 58 | 347 | 5.2 | 18.2 | 0.00 | 0.00 | 0.00 | 35 | 1009.8 |
| 20260503211508 | 58 | 236 | 7.8 | 18.2 | 0.00 | 0.00 | 0.00 | 33 | 1009.8 |
| 20260503211003 | 58 | 281 | 7.0 | 13.9 | 0.00 | 0.00 | 0.00 | 34 | 1009.8 |
| 20260503210507 | 58 | 273 | 6.1 | 13.9 | 0.00 | 0.00 | 0.00 | 36 | 1009.7 |
| 20260503210003 | 58 | 360 | 6.1 | 16.5 | 0.00 | 0.00 | 0.00 | 35 | 1009.6 |
| 20260503205502 | 58 | 306 | 8.7 | 16.5 | 0.00 | 0.00 | 0.00 | 33 | 1009.7 |
| 20260503205100 | 58 | 282 | 7.0 | 13.9 | 0.00 | 0.00 | 0.00 | 35 | 1009.7 |
| 20260503204521 | 58 | 298 | 4.3 | 15.6 | 0.00 | 0.00 | 0.00 | 36 | 1009.6 |
| 20260503204017 | 58 | 255 | 7.8 | 20.0 | 0.00 | 0.00 | 0.00 | 35 | 1009.7 |
| 20260503203515 | 58 | 292 | 8.7 | 20.9 | 0.00 | 0.00 | 0.00 | 35 | 1009.7 |
| 20260503203013 | 58 | 300 | 9.6 | 20.9 | 0.00 | 0.00 | 0.00 | 35 | 1009.7 |
| 20260503202512 | 58 | 259 | 8.7 | 19.1 | 0.00 | 0.00 | 0.00 | 35 | 1009.7 |
| 20260503202010 | 57 | 221 | 5.2 | 14.8 | 0.00 | 0.00 | 0.00 | 37 | 1009.8 |
| 20260503201513 | 57 | 279 | 8.7 | 14.8 | 0.00 | 0.00 | 0.00 | 37 | 1009.7 |
| 20260503201011 | 57 | 345 | 4.3 | 22.6 | 0.00 | 0.00 | 0.00 | 40 | 1009.7 |
| 20260503200507 | 57 | 304 | 7.8 | 22.6 | 0.00 | 0.00 | 0.00 | 38 | 1009.7 |
| 20260503200007 | 57 | 315 | 8.7 | 14.8 | 0.00 | 0.00 | 0.00 | 37 | 1009.8 |
| 20260503195508 | 57 | 293 | 4.3 | 17.4 | 0.00 | 0.00 | 0.00 | 38 | 1009.7 |